createdAt,value
2022-11-29T00:01:08.163Z,19.13
2022-11-29T00:03:34.827Z,19.90
2022-11-29T00:06:19.632Z,18.52
2022-11-29T00:08:47.076Z,18.23
2022-11-29T00:11:35.869Z,20.23
2022-11-29T00:14:02.778Z,18.90
2022-11-29T00:16:30.857Z,20.30
2022-11-29T00:18:57.469Z,18.27
2022-11-29T00:21:24.138Z,18.63
2022-11-29T00:23:50.787Z,18.45
2022-11-29T00:26:17.811Z,18.80
2022-11-29T00:28:44.428Z,19.23
2022-11-29T00:31:22.686Z,19.33
2022-11-29T00:33:50.093Z,19.17
2022-11-29T00:36:17.250Z,19.05
2022-11-29T00:38:44.217Z,18.30
2022-11-29T00:41:11.414Z,18.42
2022-11-29T00:43:38.596Z,17.88
2022-11-29T00:46:06.151Z,17.30
2022-11-29T00:48:32.785Z,17.38
2022-11-29T00:50:59.600Z,17.23
2022-11-29T00:53:26.267Z,16.83
2022-11-29T00:55:53.424Z,16.35
2022-11-29T00:58:21.099Z,17.30
2022-11-29T01:00:47.820Z,16.77
2022-11-29T01:03:15.691Z,17.00
2022-11-29T01:05:42.991Z,17.85
2022-11-29T01:08:10.798Z,17.23
2022-11-29T01:10:37.463Z,17.13
2022-11-29T01:13:04.787Z,17.48
2022-11-29T01:15:31.632Z,18.50
2022-11-29T01:17:58.297Z,18.15
2022-11-29T01:20:25.129Z,16.38
2022-11-29T01:22:51.882Z,17.10
2022-11-29T01:25:19.435Z,16.63
2022-11-29T01:27:46.875Z,16.30
2022-11-29T01:30:13.667Z,16.08
2022-11-29T01:32:40.387Z,16.13
2022-11-29T01:35:07.779Z,15.20
2022-11-29T01:37:34.635Z,15.20
2022-11-29T01:40:01.347Z,14.50
2022-11-29T01:42:27.992Z,14.93
2022-11-29T01:45:12.688Z,14.50
2022-11-29T01:47:45.987Z,13.82
2022-11-29T01:50:13.279Z,13.82
2022-11-29T01:52:40.516Z,13.40
2022-11-29T01:55:09.795Z,13.60
2022-11-29T01:57:40.983Z,13.40
2022-11-29T02:00:12.708Z,12.95
2022-11-29T02:02:45.182Z,13.20
2022-11-29T02:05:15.055Z,13.95
2022-11-29T02:07:45.871Z,13.38
2022-11-29T02:10:14.004Z,13.02
2022-11-29T02:12:43.395Z,12.75
2022-11-29T02:15:13.561Z,13.90
2022-11-29T02:17:58.973Z,14.80
2022-11-29T02:21:02.884Z,13.93
2022-11-29T02:23:48.026Z,13.30
2022-11-29T02:26:36.191Z,14.00
2022-11-29T02:29:14.981Z,12.40
2022-11-29T02:32:02.753Z,13.32
2022-11-29T02:34:37.066Z,12.60
2022-11-29T02:37:21.546Z,13.85
2022-11-29T02:39:56.983Z,14.43
2022-11-29T02:43:01.223Z,13.98
2022-11-29T02:45:42.956Z,13.55
2022-11-29T02:48:30.479Z,14.25
2022-11-29T02:51:09.878Z,15.95
2022-11-29T02:53:44.211Z,14.27
2022-11-29T02:56:10.872Z,14.60
2022-11-29T02:58:51.038Z,14.60
2022-11-29T03:01:33.786Z,15.30
2022-11-29T03:04:15.561Z,17.35
2022-11-29T03:07:04.005Z,15.50
2022-11-29T03:09:45.451Z,14.70
2022-11-29T03:12:23.939Z,15.40
2022-11-29T03:14:56.315Z,15.70
2022-11-29T03:17:31.960Z,15.88
2022-11-29T03:20:13.966Z,14.05
2022-11-29T03:23:06.196Z,15.68
2022-11-29T03:25:57.327Z,13.98
2022-11-29T03:28:42.174Z,14.20
2022-11-29T03:31:47.061Z,16.05
2022-11-29T03:34:19.387Z,15.52
2022-11-29T03:36:52.009Z,14.38
2022-11-29T03:39:25.318Z,13.43
2022-11-29T03:42:00.029Z,15.27
2022-11-29T03:44:40.403Z,14.88
2022-11-29T03:47:15.463Z,14.57
2022-11-29T03:49:56.371Z,16.50
2022-11-29T03:52:47.675Z,15.05
2022-11-29T03:55:33.087Z,17.02
2022-11-29T03:58:20.739Z,14.75
2022-11-29T04:03:47.647Z,14.85
2022-11-29T04:06:32.705Z,15.82
2022-11-29T04:09:20.959Z,14.05
2022-11-29T04:11:58.784Z,14.77
2022-11-29T04:17:24.751Z,13.52
2022-11-29T04:20:10.541Z,14.57
2022-11-29T04:23:05.103Z,12.52
2022-11-29T04:25:49.451Z,13.88
2022-11-29T04:28:34.788Z,12.20
2022-11-29T04:31:13.159Z,12.18
2022-11-29T04:33:48.548Z,12.23
2022-11-29T04:36:17.871Z,12.60
2022-11-29T04:39:25.264Z,12.57
2022-11-29T04:45:08.135Z,11.40
2022-11-29T04:48:03.768Z,10.73
2022-11-29T04:50:50.357Z,11.45
2022-11-29T04:53:43.655Z,10.95
2022-11-29T04:56:30.415Z,10.77
2022-11-29T04:59:18.579Z,12.87
2022-11-29T05:01:59.970Z,11.60
2022-11-29T05:04:37.575Z,10.82
2022-11-29T05:07:28.774Z,11.63
2022-11-29T05:10:06.219Z,11.27
2022-11-29T05:13:03.665Z,11.60
2022-11-29T05:15:30.233Z,11.13
2022-11-29T05:18:35.512Z,12.13
2022-11-29T05:21:09.107Z,10.85
2022-11-29T05:23:54.189Z,10.85
2022-11-29T05:26:30.677Z,10.43
2022-11-29T05:29:11.135Z,9.98
2022-11-29T05:31:49.087Z,11.27
2022-11-29T05:34:34.681Z,10.40
2022-11-29T05:37:20.476Z,10.40
2022-11-29T05:40:08.579Z,12.50
2022-11-29T05:43:00.107Z,12.88
2022-11-29T05:45:37.131Z,11.43
2022-11-29T05:48:13.603Z,13.93
2022-11-29T05:50:51.187Z,13.07
2022-11-29T05:53:35.354Z,14.10
2022-11-29T05:56:14.168Z,13.88
2022-11-29T05:58:55.920Z,14.27
2022-11-29T06:01:24.189Z,14.68
2022-11-29T06:04:04.852Z,16.60
2022-11-29T06:06:44.411Z,14.55
2022-11-29T06:09:21.931Z,13.48
2022-11-29T06:11:55.175Z,12.10
2022-11-29T06:14:28.041Z,12.70
2022-11-29T06:17:12.595Z,13.18
2022-11-29T06:20:19.167Z,12.43
2022-11-29T06:23:10.705Z,13.57
2022-11-29T06:26:34.225Z,11.60
2022-11-29T06:29:22.119Z,12.55
2022-11-29T06:31:55.871Z,12.35
2022-11-29T06:34:30.962Z,12.85
2022-11-29T06:37:05.537Z,12.75
2022-11-29T06:39:32.397Z,13.40
2022-11-29T06:41:59.041Z,13.90
2022-11-29T06:44:26.014Z,16.95
2022-11-29T06:47:29.095Z,16.47
2022-11-29T06:50:02.839Z,13.95
2022-11-29T06:52:43.503Z,12.15
2022-11-29T06:55:32.473Z,11.32
2022-11-29T06:58:11.402Z,14.50
2022-11-29T07:00:38.584Z,11.98
2022-11-29T07:03:32.596Z,15.27
2022-11-29T07:06:02.207Z,14.20
2022-11-29T07:08:29.425Z,13.13
2022-11-29T07:10:56.520Z,14.20
2022-11-29T07:13:23.544Z,16.05
2022-11-29T07:16:17.392Z,14.20
2022-11-29T07:19:00.474Z,16.48
2022-11-29T07:21:45.926Z,16.15
2022-11-29T07:24:54.225Z,14.60
2022-11-29T07:27:59.404Z,14.45
2022-11-29T07:30:43.020Z,15.18
2022-11-29T07:33:52.875Z,18.20
2022-11-29T07:36:29.400Z,14.88
2022-11-29T07:39:12.485Z,14.63
2022-11-29T07:42:02.837Z,13.40
2022-11-29T07:44:47.816Z,15.05
2022-11-29T07:47:14.628Z,13.77
2022-11-29T07:49:41.255Z,15.52
2022-11-29T07:52:12.222Z,13.57
2022-11-29T07:54:40.241Z,13.60
2022-11-29T07:59:33.501Z,17.98
2022-11-29T08:02:00.212Z,15.10
2022-11-29T08:04:26.934Z,15.60
2022-11-29T08:06:53.558Z,14.30
2022-11-29T08:09:20.341Z,14.80
2022-11-29T08:11:48.842Z,16.23
2022-11-29T08:14:15.606Z,17.27
2022-11-29T08:16:42.289Z,17.00
2022-11-29T08:19:09.016Z,17.77
2022-11-29T08:21:36.847Z,16.65
2022-11-29T08:24:03.902Z,15.77
2022-11-29T08:26:31.894Z,14.77
2022-11-29T08:28:58.806Z,14.73
2022-11-29T08:31:25.491Z,16.85
2022-11-29T08:33:52.223Z,15.02
2022-11-29T08:36:20.060Z,12.80
2022-11-29T08:38:47.788Z,12.43
2022-11-29T08:41:16.301Z,15.30
2022-11-29T08:43:43.906Z,15.73
2022-11-29T08:46:15.301Z,15.27
2022-11-29T08:48:45.115Z,15.45
2022-11-29T08:51:11.868Z,16.90
2022-11-29T08:53:41.278Z,15.65
2022-11-29T08:57:04.266Z,18.75
2022-11-29T08:59:05.016Z,15.57
2022-11-29T09:01:31.872Z,15.73
2022-11-29T09:04:05.185Z,14.57
2022-11-29T09:06:40.659Z,14.18
2022-11-29T09:09:07.551Z,14.65
2022-11-29T09:11:35.354Z,15.73
2022-11-29T09:14:05.682Z,17.00
2022-11-29T09:16:37.349Z,15.65
2022-11-29T09:19:05.812Z,17.00
2022-11-29T09:21:34.411Z,17.58
2022-11-29T09:24:05.558Z,17.23
2022-11-29T09:26:35.229Z,18.63
2022-11-29T09:29:05.309Z,21.30
2022-11-29T09:31:33.180Z,17.75
2022-11-29T09:36:29.265Z,15.80
2022-11-29T09:38:57.075Z,16.20
2022-11-29T09:41:48.321Z,16.60
2022-11-29T09:44:40.872Z,14.48
2022-11-29T09:47:43.039Z,13.85
2022-11-29T09:50:33.384Z,15.90
2022-11-29T09:53:43.711Z,16.17
2022-11-29T09:56:23.604Z,19.58
2022-11-29T09:59:00.378Z,17.58
2022-11-29T10:01:30.141Z,22.73
2022-11-29T10:04:12.326Z,21.73
2022-11-29T10:06:48.454Z,23.40
2022-11-29T10:09:24.357Z,24.88
2022-11-29T10:12:01.185Z,24.15
2022-11-29T10:14:35.557Z,24.87
2022-11-29T10:17:34.507Z,24.05
2022-11-29T10:20:16.920Z,19.65
2022-11-29T10:23:14.278Z,22.58
2022-11-29T10:25:49.858Z,21.52
2022-11-29T10:28:19.660Z,23.60
2022-11-29T10:30:47.924Z,18.23
2022-11-29T10:33:25.607Z,22.05
2022-11-29T10:35:57.019Z,21.10
2022-11-29T10:38:31.515Z,21.10
2022-11-29T10:41:05.454Z,20.77
2022-11-29T10:43:32.079Z,21.27
2022-11-29T10:45:59.331Z,19.73
2022-11-29T10:48:32.073Z,20.98
2022-11-29T10:50:59.517Z,19.25
2022-11-29T10:53:37.388Z,23.15
2022-11-29T10:56:31.196Z,19.83
2022-11-29T10:59:05.367Z,18.27
2022-11-29T11:01:36.795Z,23.98
2022-11-29T11:04:07.473Z,22.38
2022-11-29T11:06:49.501Z,22.00
2022-11-29T11:09:22.567Z,24.73
2022-11-29T11:11:54.928Z,23.15
2022-11-29T11:14:28.829Z,22.25
2022-11-29T11:16:55.967Z,26.08
2022-11-29T11:19:29.262Z,26.73
2022-11-29T11:21:58.231Z,25.67
2022-11-29T11:24:28.295Z,20.40
2022-11-29T11:26:55.271Z,21.85
2022-11-29T11:29:30.676Z,23.47
2022-11-29T11:31:59.795Z,36.20
2022-11-29T11:34:34.636Z,29.15
2022-11-29T11:37:21.979Z,30.75
2022-11-29T11:39:51.679Z,25.58
2022-11-29T11:42:38.920Z,24.02
2022-11-29T11:45:11.557Z,23.95
2022-11-29T11:47:46.492Z,31.55
2022-11-29T11:50:25.397Z,30.27
2022-11-29T11:52:55.580Z,27.60
2022-11-29T11:55:22.418Z,28.42
2022-11-29T11:58:10.286Z,27.65
2022-11-29T12:01:03.522Z,25.25
2022-11-29T12:04:06.427Z,23.67
2022-11-29T12:06:53.325Z,26.05
2022-11-29T12:09:44.759Z,35.33
2022-11-29T12:12:31.252Z,87.32
2022-11-29T12:15:19.584Z,23.88
2022-11-29T12:17:58.050Z,63.10
2022-11-29T12:20:51.372Z,22.92
2022-11-29T12:23:27.114Z,23.15
2022-11-29T12:26:00.265Z,22.05
2022-11-29T12:28:33.557Z,33.22
2022-11-29T12:31:06.461Z,39.63
2022-11-29T12:33:45.373Z,28.98
2022-11-29T12:36:28.395Z,23.60
2022-11-29T12:39:07.904Z,21.23
2022-11-29T12:41:43.471Z,19.27
2022-11-29T12:44:44.252Z,19.05
2022-11-29T12:47:35.637Z,19.88
2022-11-29T12:50:29.040Z,18.55
2022-11-29T12:53:22.571Z,22.60
2022-11-29T12:56:29.350Z,18.17
2022-11-29T12:59:06.084Z,19.25
2022-11-29T13:01:51.216Z,17.88
2022-11-29T13:04:33.635Z,17.50
2022-11-29T13:07:13.048Z,19.38
2022-11-29T13:10:05.195Z,19.70
2022-11-29T13:12:48.001Z,17.85
2022-11-29T13:15:17.600Z,18.33
2022-11-29T13:18:14.428Z,18.77
2022-11-29T13:20:55.956Z,19.20
2022-11-29T13:24:07.362Z,17.90
2022-11-29T13:26:29.997Z,18.55
2022-11-29T13:28:57.841Z,20.60
2022-11-29T13:31:25.662Z,17.40
2022-11-29T13:34:04.624Z,19.40
2022-11-29T13:37:08.938Z,20.65
2022-11-29T13:40:09.241Z,20.95
2022-11-29T13:43:06.898Z,21.45
2022-11-29T13:45:55.899Z,27.30
2022-11-29T13:48:28.397Z,55.28
2022-11-29T13:50:58.921Z,23.40
2022-11-29T13:53:48.219Z,24.70
2022-11-29T13:56:29.572Z,26.20
2022-11-29T13:58:58.844Z,30.15
2022-11-29T14:01:26.769Z,25.10
2022-11-29T14:06:37.269Z,22.63
2022-11-29T14:09:25.307Z,37.67
2022-11-29T14:12:00.740Z,47.47
2022-11-29T14:14:41.140Z,28.50
2022-11-29T14:17:47.394Z,55.42
2022-11-29T14:20:23.400Z,28.23
2022-11-29T14:23:05.406Z,26.42
2022-11-29T14:25:53.295Z,25.92
2022-11-29T14:28:23.080Z,25.52
2022-11-29T14:30:50.975Z,23.90
2022-11-29T14:36:18.830Z,45.90
2022-11-29T14:38:58.728Z,25.02
2022-11-29T14:41:43.719Z,25.65
2022-11-29T14:44:16.147Z,25.00
2022-11-29T14:46:42.999Z,25.50
2022-11-29T14:49:22.418Z,25.70
2022-11-29T14:52:15.674Z,27.60
2022-11-29T14:54:59.352Z,24.75
2022-11-29T14:57:48.022Z,24.92
2022-11-29T15:00:15.800Z,26.48
2022-11-29T15:02:51.039Z,25.15
2022-11-29T15:05:29.353Z,26.55
2022-11-29T15:08:17.026Z,29.48
2022-11-29T15:13:44.457Z,28.80
2022-11-29T15:16:43.324Z,30.75
2022-11-29T15:19:36.230Z,28.02
2022-11-29T15:22:22.357Z,26.40
2022-11-29T15:25:00.502Z,27.20
2022-11-29T15:27:27.241Z,26.80
2022-11-29T15:29:54.026Z,27.25
2022-11-29T15:32:27.670Z,26.88
2022-11-29T15:34:56.190Z,28.60
2022-11-29T15:37:31.871Z,27.50
2022-11-29T15:40:11.853Z,29.73
2022-11-29T15:42:55.639Z,29.45
2022-11-29T15:45:31.052Z,30.52
2022-11-29T15:48:32.880Z,30.15
2022-11-29T15:51:11.858Z,30.17
2022-11-29T15:53:45.915Z,31.35
2022-11-29T15:56:23.436Z,30.75
2022-11-29T15:58:52.129Z,33.60
2022-11-29T16:01:21.560Z,31.70
2022-11-29T16:03:52.863Z,30.77
2022-11-29T16:06:28.729Z,33.15
2022-11-29T16:08:55.618Z,31.70
2022-11-29T16:11:27.837Z,30.55
2022-11-29T16:14:20.809Z,30.83
2022-11-29T16:16:52.520Z,29.83
2022-11-29T16:19:28.123Z,31.05
2022-11-29T16:22:17.110Z,29.67
2022-11-29T16:25:15.383Z,30.95
2022-11-29T16:27:42.617Z,29.92
2022-11-29T16:30:22.699Z,32.80
2022-11-29T16:32:57.982Z,30.92
2022-11-29T16:35:27.800Z,29.83
2022-11-29T16:37:55.243Z,31.13
2022-11-29T16:40:34.455Z,31.15
2022-11-29T16:43:04.693Z,36.65
2022-11-29T16:45:42.402Z,36.35
2022-11-29T16:48:27.300Z,37.45
2022-11-29T16:51:14.877Z,35.38
2022-11-29T16:53:43.968Z,34.25
2022-11-29T16:56:16.711Z,34.55
2022-11-29T16:59:20.589Z,34.55
2022-11-29T17:01:32.265Z,32.40
2022-11-29T17:04:00.667Z,34.55
2022-11-29T17:06:29.513Z,33.00
2022-11-29T17:08:58.677Z,34.25
2022-11-29T17:11:26.074Z,32.20
2022-11-29T17:13:53.288Z,33.13
2022-11-29T17:16:22.781Z,35.15
2022-11-29T17:18:49.974Z,32.28
2022-11-29T17:21:21.273Z,31.38
2022-11-29T17:23:48.058Z,30.98
2022-11-29T17:26:15.529Z,31.83
2022-11-29T17:28:43.914Z,32.55
2022-11-29T17:31:16.284Z,31.85
2022-11-29T17:33:43.649Z,33.78
2022-11-29T17:36:15.523Z,36.70
2022-11-29T17:38:43.514Z,34.13
2022-11-29T17:41:18.953Z,34.20
2022-11-29T17:43:46.011Z,39.42
2022-11-29T17:46:20.299Z,40.93
2022-11-29T17:48:47.772Z,42.88
2022-11-29T17:51:43.596Z,43.47
2022-11-29T17:54:04.389Z,40.42
2022-11-29T17:59:13.045Z,36.00
2022-11-29T18:01:39.798Z,34.83
2022-11-29T18:04:08.364Z,34.85
2022-11-29T18:06:39.571Z,31.75
2022-11-29T18:09:08.746Z,34.63
2022-11-29T18:11:46.371Z,32.75
2022-11-29T18:14:16.640Z,32.25
2022-11-29T18:16:45.206Z,55.65
2022-11-29T18:19:15.149Z,40.70
2022-11-29T18:21:42.295Z,35.13
2022-11-29T18:24:09.495Z,32.20
2022-11-29T18:26:37.525Z,32.92
2022-11-29T18:31:38.276Z,29.95
2022-11-29T18:34:09.375Z,30.05
2022-11-29T18:36:39.405Z,30.75
2022-11-29T18:39:11.312Z,31.23
2022-11-29T18:41:38.358Z,30.02
2022-11-29T18:44:08.206Z,33.40
2022-11-29T18:46:37.275Z,35.40
2022-11-29T18:49:06.579Z,39.80
2022-11-29T18:51:35.728Z,36.63
2022-11-29T18:54:02.933Z,37.10
2022-11-29T18:56:31.926Z,37.38
2022-11-29T18:59:10.279Z,39.20
2022-11-29T19:01:41.283Z,37.90
2022-11-29T19:04:10.959Z,74.50
2022-11-29T19:06:39.920Z,34.55
2022-11-29T19:09:11.502Z,31.60
2022-11-29T19:11:39.071Z,31.58
2022-11-29T19:14:11.798Z,33.75
2022-11-29T19:16:41.023Z,28.90
2022-11-29T19:19:08.365Z,30.98
2022-11-29T19:21:35.412Z,32.47
2022-11-29T19:24:06.872Z,119.00
2022-11-29T19:26:34.770Z,61.75
2022-11-29T19:29:02.465Z,34.53
2022-11-29T19:31:29.960Z,33.95
2022-11-29T19:33:57.448Z,27.58
2022-11-29T19:36:25.846Z,30.30
2022-11-29T19:38:54.407Z,31.85
2022-11-29T19:41:30.315Z,32.22
2022-11-29T19:43:58.448Z,32.58
2022-11-29T19:46:28.136Z,33.72
2022-11-29T19:48:56.640Z,30.13
2022-11-29T19:51:24.456Z,30.10
2022-11-29T19:53:56.796Z,30.48
2022-11-29T19:56:24.317Z,29.98
2022-11-29T19:58:51.482Z,30.73
2022-11-29T20:01:25.270Z,31.42
2022-11-29T20:03:52.871Z,31.85
2022-11-29T20:06:19.678Z,35.80
2022-11-29T20:08:46.405Z,34.05
2022-11-29T20:11:20.655Z,31.60
2022-11-29T20:13:53.257Z,31.58
2022-11-29T20:16:22.155Z,41.63
2022-11-29T20:18:51.069Z,30.88
2022-11-29T20:21:19.065Z,30.00
2022-11-29T20:23:45.902Z,31.30
2022-11-29T20:26:15.706Z,29.33
2022-11-29T20:28:45.910Z,28.95
2022-11-29T20:31:21.228Z,28.63
2022-11-29T20:33:48.814Z,29.38
2022-11-29T20:36:30.708Z,27.73
2022-11-29T20:39:19.671Z,27.27
2022-11-29T20:41:57.388Z,27.75
2022-11-29T20:44:54.560Z,26.85
2022-11-29T20:47:26.987Z,27.30
2022-11-29T20:49:54.173Z,26.70
2022-11-29T20:52:45.574Z,26.73
2022-11-29T20:55:12.306Z,26.67
2022-11-29T20:57:38.927Z,29.38
2022-11-29T21:00:07.740Z,27.45
2022-11-29T21:02:34.579Z,27.38
2022-11-29T21:05:01.222Z,25.92
2022-11-29T21:07:29.252Z,27.23
2022-11-29T21:10:00.965Z,26.25
2022-11-29T21:12:29.259Z,28.02
2022-11-29T21:14:56.233Z,26.10
2022-11-29T21:17:23.268Z,25.83
2022-11-29T21:19:50.161Z,26.33
2022-11-29T21:22:40.946Z,26.37
2022-11-29T21:25:37.523Z,26.73
2022-11-29T21:28:10.818Z,25.67
2022-11-29T21:30:37.831Z,24.50
2022-11-29T21:33:05.633Z,26.63
2022-11-29T21:35:32.870Z,24.13
2022-11-29T21:38:01.623Z,26.10
2022-11-29T21:40:28.491Z,25.25
2022-11-29T21:42:55.426Z,25.73
2022-11-29T21:45:22.106Z,27.08
2022-11-29T21:47:48.780Z,24.10
2022-11-29T21:50:15.474Z,26.13
2022-11-29T21:52:43.660Z,26.30
2022-11-29T21:55:10.872Z,25.25
2022-11-29T21:57:38.750Z,26.58
2022-11-29T22:00:06.111Z,26.05
2022-11-29T22:02:32.775Z,26.13
2022-11-29T22:04:59.470Z,26.23
2022-11-29T22:07:27.196Z,26.73
2022-11-29T22:09:53.907Z,28.38
2022-11-29T22:12:33.801Z,31.42
2022-11-29T22:15:01.221Z,28.50
2022-11-29T22:17:27.946Z,24.92
2022-11-29T22:19:54.655Z,24.00
2022-11-29T22:22:21.407Z,25.23
2022-11-29T22:24:48.530Z,24.98
2022-11-29T22:27:17.719Z,24.92
2022-11-29T22:29:44.610Z,22.58
2022-11-29T22:32:11.372Z,24.55
2022-11-29T22:34:38.053Z,24.42
2022-11-29T22:37:04.702Z,24.67
2022-11-29T22:39:31.382Z,24.30
2022-11-29T22:41:58.066Z,23.00
2022-11-29T22:44:24.755Z,23.52
2022-11-29T22:46:51.771Z,22.88
2022-11-29T22:49:18.527Z,23.63
2022-11-29T22:51:45.170Z,22.15
2022-11-29T22:54:15.227Z,23.98
2022-11-29T22:56:43.468Z,24.05
2022-11-29T22:59:10.538Z,23.17
2022-11-29T23:01:39.750Z,23.93
2022-11-29T23:04:09.799Z,23.20
2022-11-29T23:06:42.242Z,24.05
2022-11-29T23:09:15.205Z,21.65
2022-11-29T23:11:43.598Z,24.00
2022-11-29T23:14:10.475Z,24.30
2022-11-29T23:16:37.248Z,23.88
2022-11-29T23:19:04.930Z,22.88
2022-11-29T23:21:35.135Z,24.45
2022-11-29T23:24:02.359Z,24.20
2022-11-29T23:26:36.399Z,24.98
2022-11-29T23:29:05.499Z,28.70
2022-11-29T23:31:33.249Z,24.30
2022-11-29T23:34:02.304Z,21.77
2022-11-29T23:36:29.929Z,24.80
2022-11-29T23:38:56.812Z,23.73
2022-11-29T23:41:23.504Z,19.13
2022-11-29T23:43:50.418Z,21.60
2022-11-29T23:46:19.941Z,22.15
2022-11-29T23:48:46.890Z,22.23
2022-11-29T23:51:14.437Z,21.60
2022-11-29T23:53:42.135Z,23.17
2022-11-29T23:56:13.069Z,21.48
2022-11-29T23:58:39.958Z,20.65
